BAW3M EDDN-OMDB
Flight info
| Callsign | BAW3M |
|---|---|
| Flight time | N/A |
| Altitude | 41000 |
| Route | RODIS1G/28 RODIS L604 LAMSI DCT SASAL DCT BABIT DCT ESIRI DCT ETIDA DCT RIXEN DCT NAMAN DCT YAVRU DCT SALGO DCT BAG DCT YUCEL DCT BALAX DCT BELSU DCT KISLA DCT ERHAN DCT SOLSA DCT OZBEY DCT SOGUM DCT PUTSI DCT SINKA DCT NOLDO DCT KATUT DCT DENKI DCT ILMAP DCT ABD DCT IBSAL DCT UKNAR DCT IMDAT DCT VUTEB |
| Aircraft | B772/H-SDE2E3FGHIJ5LORVWXY/LB1D1 |
Departure
| Time | 2026-05-06 18:11 |
|---|---|
| Airport | Nuremberg Airport (EDDN) |
Arrival
| Time | N/A |
|---|---|
| Airport | Dubai International Airport (OMDB) |
| Time | Latitude | Longitude | Altitude | Speed | Heading |
|---|---|---|---|---|---|
| 2026-05-06 17:30 | 49.49525 | 11.07793 | 1029 ft | 0 kts | 188° |
| 2026-05-06 18:02 | 49.49526 | 11.07793 | 1032 ft | 2 kts | 188° |
| 2026-05-06 18:02 | 49.49551 | 11.07797 | 1033 ft | 4 kts | 180° |
| 2026-05-06 18:03 | 49.49578 | 11.07795 | 1034 ft | 4 kts | 170° |
| 2026-05-06 18:03 | 49.49602 | 11.07787 | 1034 ft | 2 kts | 166° |
| 2026-05-06 18:03 | 49.49607 | 11.07785 | 1033 ft | 1 kts | 166° |
| 2026-05-06 18:06 | 49.49583 | 11.07825 | 1034 ft | 14 kts | 118° |
| 2026-05-06 18:06 | 49.49558 | 11.08053 | 1033 ft | 24 kts | 98° |
| 2026-05-06 18:06 | 49.49545 | 11.08188 | 1031 ft | 12 kts | 97° |
| 2026-05-06 18:06 | 49.49546 | 11.08313 | 1033 ft | 12 kts | 62° |
| 2026-05-06 18:07 | 49.49618 | 11.08394 | 1033 ft | 17 kts | 46° |
| 2026-05-06 18:07 | 49.49609 | 11.08550 | 1036 ft | 23 kts | 98° |
| 2026-05-06 18:07 | 49.49583 | 11.08781 | 1040 ft | 10 kts | 99° |
| 2026-05-06 18:07 | 49.49572 | 11.08883 | 1041 ft | 10 kts | 99° |
| 2026-05-06 18:08 | 49.49562 | 11.08986 | 1042 ft | 10 kts | 98° |
| 2026-05-06 18:08 | 49.49551 | 11.09096 | 1042 ft | 10 kts | 99° |
| 2026-05-06 18:08 | 49.49539 | 11.09207 | 1043 ft | 10 kts | 99° |
| 2026-05-06 18:08 | 49.49533 | 11.09289 | 1045 ft | 0 kts | 92° |
| 2026-05-06 18:09 | 49.49533 | 11.09309 | 1046 ft | 9 kts | 92° |
| 2026-05-06 18:09 | 49.49554 | 11.09408 | 1046 ft | 0 kts | 55° |
| 2026-05-06 18:09 | 49.49567 | 11.09433 | 1046 ft | 13 kts | 53° |
| 2026-05-06 18:09 | 49.49658 | 11.09567 | 1049 ft | 19 kts | 18° |
| 2026-05-06 18:10 | 49.49697 | 11.09545 | 1049 ft | 0 kts | 279° |
| 2026-05-06 18:10 | 49.49753 | 11.08991 | 1041 ft | 127 kts | 278° |
| 2026-05-06 18:11 | 49.49940 | 11.07144 | 2053 ft | 185 kts | 279° |
| 2026-05-06 18:11 | 49.50102 | 11.05137 | 4088 ft | 209 kts | 277° |
| 2026-05-06 18:11 | 49.50285 | 11.02693 | 4718 ft | 228 kts | 276° |
| 2026-05-06 18:11 | 49.50475 | 11.00307 | 4993 ft | 224 kts | 276° |
| 2026-05-06 18:12 | 49.50669 | 10.97888 | 5005 ft | 232 kts | 276° |
| 2026-05-06 18:12 | 49.50906 | 10.95323 | 5723 ft | 249 kts | 283° |
| 2026-05-06 18:12 | 49.51786 | 10.93081 | 7452 ft | 252 kts | 319° |
| 2026-05-06 18:12 | 49.53416 | 10.92063 | 9661 ft | 262 kts | 353° |
| 2026-05-06 18:13 | 49.55259 | 10.92264 | 11481 ft | 272 kts | 5° |
| 2026-05-06 18:13 | 49.57198 | 10.92552 | 13302 ft | 287 kts | 1° |
| 2026-05-06 18:13 | 49.59265 | 10.92675 | 14929 ft | 322 kts | 359° |
| 2026-05-06 18:13 | 49.61662 | 10.92706 | 15583 ft | 348 kts | 358° |
| 2026-05-06 18:14 | 49.64039 | 10.92753 | 15822 ft | 335 kts | 1° |
| 2026-05-06 18:14 | 49.66267 | 10.93570 | 15795 ft | 330 kts | 26° |
| 2026-05-06 18:14 | 49.68042 | 10.95682 | 16005 ft | 317 kts | 50° |
| 2026-05-06 18:14 | 49.69175 | 10.98522 | 16058 ft | 309 kts | 69° |
| 2026-05-06 18:15 | 49.69739 | 11.01698 | 16124 ft | 308 kts | 88° |
| 2026-05-06 18:15 | 49.69664 | 11.05013 | 16544 ft | 309 kts | 98° |
| 2026-05-06 18:15 | 49.69459 | 11.08327 | 17072 ft | 311 kts | 98° |
| 2026-05-06 18:15 | 49.69270 | 11.11658 | 17561 ft | 311 kts | 97° |
| 2026-05-06 18:16 | 49.69093 | 11.15001 | 17977 ft | 314 kts | 97° |
| 2026-05-06 18:16 | 49.68664 | 11.18288 | 18235 ft | 322 kts | 119° |
| 2026-05-06 18:16 | 49.67477 | 11.21172 | 19825 ft | 316 kts | 128° |
| 2026-05-06 18:16 | 49.66260 | 11.23984 | 21870 ft | 315 kts | 128° |
| 2026-05-06 18:17 | 49.65057 | 11.26798 | 23557 ft | 322 kts | 128° |
| 2026-05-06 18:17 | 49.63834 | 11.29688 | 25131 ft | 318 kts | 128° |
| 2026-05-06 18:17 | 49.62606 | 11.32604 | 26320 ft | 335 kts | 129° |
| 2026-05-06 18:17 | 49.61268 | 11.35766 | 26832 ft | 370 kts | 128° |
| 2026-05-06 18:18 | 49.59822 | 11.39202 | 27751 ft | 390 kts | 128° |
| 2026-05-06 18:18 | 49.58341 | 11.42756 | 29202 ft | 399 kts | 128° |
| 2026-05-06 18:18 | 49.56809 | 11.46440 | 30227 ft | 419 kts | 129° |
| 2026-05-06 18:18 | 49.55186 | 11.50330 | 30747 ft | 446 kts | 129° |
| 2026-05-06 18:19 | 49.53436 | 11.54507 | 30778 ft | 483 kts | 128° |
| 2026-05-06 18:19 | 49.51559 | 11.58990 | 30787 ft | 511 kts | 128° |
| 2026-05-06 18:19 | 49.47742 | 11.68197 | 30772 ft | 508 kts | 128° |
| 2026-05-06 18:20 | 49.43919 | 11.77383 | 30763 ft | 511 kts | 129° |
| 2026-05-06 18:20 | 49.40071 | 11.86555 | 30763 ft | 511 kts | 129° |
| 2026-05-06 18:21 | 49.36210 | 11.95703 | 30765 ft | 511 kts | 129° |
| 2026-05-06 18:21 | 49.32346 | 12.04825 | 30758 ft | 509 kts | 129° |
| 2026-05-06 18:22 | 49.28493 | 12.13893 | 30749 ft | 508 kts | 129° |
| 2026-05-06 18:22 | 49.24612 | 12.22989 | 30751 ft | 511 kts | 129° |
| 2026-05-06 18:23 | 49.20712 | 12.32103 | 30751 ft | 513 kts | 129° |
| 2026-05-06 18:23 | 49.16800 | 12.41218 | 30746 ft | 513 kts | 129° |
| 2026-05-06 18:24 | 49.12881 | 12.50317 | 30721 ft | 513 kts | 129° |
| 2026-05-06 18:24 | 49.08932 | 12.59448 | 30731 ft | 517 kts | 129° |
| 2026-05-06 18:25 | 49.04958 | 12.68613 | 30727 ft | 519 kts | 129° |
| 2026-05-06 18:25 | 49.00978 | 12.77766 | 30740 ft | 517 kts | 129° |
| 2026-05-06 18:26 | 48.97002 | 12.86873 | 30739 ft | 516 kts | 129° |
| 2026-05-06 18:26 | 48.93023 | 12.95955 | 30726 ft | 515 kts | 129° |
| 2026-05-06 18:27 | 48.89075 | 13.04936 | 30718 ft | 514 kts | 129° |
| 2026-05-06 18:27 | 48.85094 | 13.13960 | 30722 ft | 515 kts | 129° |
| 2026-05-06 18:28 | 48.81100 | 13.22985 | 30698 ft | 516 kts | 129° |
| 2026-05-06 18:28 | 48.77080 | 13.32036 | 30715 ft | 519 kts | 129° |
| 2026-05-06 18:29 | 48.73035 | 13.41120 | 30705 ft | 521 kts | 129° |
| 2026-05-06 18:29 | 48.68971 | 13.50219 | 30707 ft | 521 kts | 129° |
| 2026-05-06 18:30 | 48.65148 | 13.59571 | 30674 ft | 527 kts | 123° |
| 2026-05-06 18:30 | 48.62312 | 13.69894 | 30701 ft | 533 kts | 118° |
| 2026-05-06 18:31 | 48.58900 | 13.79726 | 31585 ft | 522 kts | 130° |
| 2026-05-06 18:31 | 48.56819 | 13.84131 | 33249 ft | 511 kts | 133° |
| 2026-05-06 18:31 | 48.54739 | 13.88506 | 34222 ft | 516 kts | 133° |
| 2026-05-06 18:32 | 48.52641 | 13.92943 | 34695 ft | 517 kts | 132° |
| 2026-05-06 18:32 | 48.50588 | 13.97333 | 34649 ft | 508 kts | 132° |
| 2026-05-06 18:32 | 48.46544 | 14.06007 | 34689 ft | 506 kts | 132° |
| 2026-05-06 18:33 | 48.42484 | 14.14676 | 34856 ft | 509 kts | 132° |
| 2026-05-06 18:33 | 48.40444 | 14.19021 | 36072 ft | 505 kts | 132° |
| 2026-05-06 18:33 | 48.38431 | 14.23309 | 37378 ft | 499 kts | 131° |
| 2026-05-06 18:34 | 48.36433 | 14.27557 | 38593 ft | 495 kts | 131° |
| 2026-05-06 18:34 | 48.34443 | 14.31775 | 39400 ft | 496 kts | 131° |
| 2026-05-06 18:34 | 48.32423 | 14.36037 | 39798 ft | 506 kts | 130° |
| 2026-05-06 18:34 | 48.30369 | 14.40365 | 40360 ft | 510 kts | 130° |
| 2026-05-06 18:35 | 48.28315 | 14.44694 | 41138 ft | 509 kts | 129° |
| 2026-05-06 18:35 | 48.26260 | 14.49026 | 41966 ft | 508 kts | 129° |
| 2026-05-06 18:35 | 48.24207 | 14.53347 | 42674 ft | 509 kts | 128° |
| 2026-05-06 18:35 | 48.22147 | 14.57673 | 43374 ft | 510 kts | 128° |
| 2026-05-06 18:36 | 48.20097 | 14.61974 | 44319 ft | 505 kts | 128° |
| 2026-05-06 18:36 | 48.18040 | 14.66281 | 44729 ft | 512 kts | 128° |
| 2026-05-06 18:36 | 48.15939 | 14.70666 | 44695 ft | 524 kts | 127° |
| 2026-05-06 18:36 | 48.13791 | 14.75142 | 44775 ft | 533 kts | 127° |
| 2026-05-06 18:37 | 48.11678 | 14.79546 | 45149 ft | 516 kts | 128° |
| 2026-05-06 18:37 | 48.10278 | 14.82461 | 45073 ft | 524 kts | 127° |
| 2026-05-06 18:37 | 48.05299 | 14.92816 | 44631 ft | 508 kts | 128° |
| 2026-05-06 18:38 | 48.03313 | 14.96973 | 44723 ft | 480 kts | 128° |
| 2026-05-06 18:38 | 48.01331 | 15.01075 | 44747 ft | 494 kts | 128° |
| 2026-05-06 18:38 | 47.99286 | 15.05275 | 44729 ft | 507 kts | 129° |
| 2026-05-06 18:38 | 47.97215 | 15.09518 | 44729 ft | 503 kts | 129° |
| 2026-05-06 18:39 | 47.93092 | 15.17959 | 44741 ft | 513 kts | 128° |
| 2026-05-06 18:40 | 47.86804 | 15.30824 | 44731 ft | 507 kts | 128° |
| 2026-05-06 18:40 | 47.82658 | 15.39285 | 44755 ft | 506 kts | 128° |
| 2026-05-06 18:41 | 47.78483 | 15.47768 | 44771 ft | 508 kts | 128° |
| 2026-05-06 18:41 | 47.74310 | 15.56227 | 44790 ft | 507 kts | 129° |
| 2026-05-06 18:42 | 47.70137 | 15.64658 | 44785 ft | 507 kts | 128° |
| 2026-05-06 18:42 | 47.65948 | 15.73093 | 44781 ft | 508 kts | 127° |
| 2026-05-06 18:43 | 47.61745 | 15.81531 | 44816 ft | 509 kts | 128° |
| 2026-05-06 18:43 | 47.57529 | 15.89973 | 44815 ft | 510 kts | 128° |
| 2026-05-06 18:44 | 47.53308 | 15.98397 | 44808 ft | 509 kts | 129° |
| 2026-05-06 18:44 | 47.49067 | 16.06832 | 44804 ft | 514 kts | 128° |
| 2026-05-06 18:45 | 47.44785 | 16.15325 | 44830 ft | 517 kts | 128° |
| 2026-05-06 18:45 | 47.40473 | 16.23852 | 44840 ft | 518 kts | 128° |
| 2026-05-06 18:46 | 47.36168 | 16.32342 | 44829 ft | 515 kts | 128° |
| 2026-05-06 18:46 | 47.31879 | 16.40777 | 44822 ft | 514 kts | 129° |
| 2026-05-06 18:47 | 47.28575 | 16.48037 | 44829 ft | 515 kts | 120° |
| 2026-05-06 18:47 | 47.25554 | 16.57616 | 44857 ft | 517 kts | 113° |
| 2026-05-06 18:48 | 47.22896 | 16.67477 | 44855 ft | 519 kts | 113° |
| 2026-05-06 18:48 | 47.20222 | 16.77323 | 44856 ft | 518 kts | 113° |
| 2026-05-06 18:49 | 47.17516 | 16.87120 | 44845 ft | 516 kts | 112° |
| 2026-05-06 18:49 | 47.14790 | 16.96884 | 44861 ft | 517 kts | 113° |
| 2026-05-06 18:50 | 47.12047 | 17.06663 | 44858 ft | 519 kts | 113° |
| 2026-05-06 18:50 | 47.09292 | 17.16450 | 44864 ft | 518 kts | 113° |
| 2026-05-06 18:51 | 47.06533 | 17.26220 | 44865 ft | 518 kts | 113° |
| 2026-05-06 18:51 | 47.03770 | 17.35962 | 44878 ft | 518 kts | 113° |
| 2026-05-06 18:52 | 47.00998 | 17.45698 | 44881 ft | 517 kts | 113° |
| 2026-05-06 18:52 | 46.98222 | 17.55410 | 44883 ft | 516 kts | 113° |